sensor_id;sensor_type;location;lat;lon;timestamp;pressure;altitude;pressure_sealevel;temperature;humidity
7888;BME280;3989;48.810;9.208;2022-10-31T00:00:00;99258.09;;;10.07;100.00
7888;BME280;3989;48.810;9.208;2022-10-31T00:02:27;99269.09;;;10.12;100.00
7888;BME280;3989;48.810;9.208;2022-10-31T00:04:53;99259.75;;;9.99;100.00
7888;BME280;3989;48.810;9.208;2022-10-31T00:07:22;99243.75;;;9.91;100.00
7888;BME280;3989;48.810;9.208;2022-10-31T00:09:48;99278.59;;;10.06;100.00
7888;BME280;3989;48.810;9.208;2022-10-31T00:12:15;99272.28;;;10.07;100.00
7888;BME280;3989;48.810;9.208;2022-10-31T00:14:41;99269.44;;;10.09;100.00
7888;BME280;3989;48.810;9.208;2022-10-31T00:17:07;99273.13;;;10.08;100.00
7888;BME280;3989;48.810;9.208;2022-10-31T00:19:34;99271.44;;;10.07;100.00
7888;BME280;3989;48.810;9.208;2022-10-31T00:22:00;99273.63;;;10.11;100.00
7888;BME280;3989;48.810;9.208;2022-10-31T00:24:28;99245.06;;;9.95;100.00
7888;BME280;3989;48.810;9.208;2022-10-31T00:26:55;99282.81;;;10.17;100.00
7888;BME280;3989;48.810;9.208;2022-10-31T00:29:21;99261.50;;;10.17;100.00
7888;BME280;3989;48.810;9.208;2022-10-31T00:31:48;99272.34;;;10.23;100.00
7888;BME280;3989;48.810;9.208;2022-10-31T00:34:14;99268.97;;;10.21;100.00
7888;BME280;3989;48.810;9.208;2022-10-31T00:36:41;99266.50;;;10.20;100.00
7888;BME280;3989;48.810;9.208;2022-10-31T00:39:08;99263.81;;;10.28;100.00
7888;BME280;3989;48.810;9.208;2022-10-31T00:41:35;99264.00;;;10.26;100.00
7888;BME280;3989;48.810;9.208;2022-10-31T00:44:02;99252.97;;;10.21;100.00
7888;BME280;3989;48.810;9.208;2022-10-31T00:46:29;99258.47;;;10.28;100.00
7888;BME280;3989;48.810;9.208;2022-10-31T00:48:55;99274.19;;;10.47;100.00
7888;BME280;3989;48.810;9.208;2022-10-31T00:51:22;99264.69;;;10.44;100.00
7888;BME280;3989;48.810;9.208;2022-10-31T00:53:48;99269.84;;;10.54;100.00
7888;BME280;3989;48.810;9.208;2022-10-31T00:56:15;99267.69;;;10.49;100.00
7888;BME280;3989;48.810;9.208;2022-10-31T00:58:43;99277.00;;;10.53;100.00
7888;BME280;3989;48.810;9.208;2022-10-31T01:01:09;99209.13;;;10.16;100.00
7888;BME280;3989;48.810;9.208;2022-10-31T01:03:36;99267.34;;;10.61;100.00
7888;BME280;3989;48.810;9.208;2022-10-31T01:06:06;99260.34;;;10.60;100.00
7888;BME280;3989;48.810;9.208;2022-10-31T01:08:34;99246.00;;;10.69;100.00
7888;BME280;3989;48.810;9.208;2022-10-31T01:11:03;99261.66;;;10.88;100.00
7888;BME280;3989;48.810;9.208;2022-10-31T01:13:30;99263.66;;;10.94;100.00
7888;BME280;3989;48.810;9.208;2022-10-31T01:15:58;99256.63;;;10.93;100.00
7888;BME280;3989;48.810;9.208;2022-10-31T01:18:26;99259.00;;;10.88;100.00
7888;BME280;3989;48.810;9.208;2022-10-31T01:21:03;99226.97;;;10.64;100.00
7888;BME280;3989;48.810;9.208;2022-10-31T01:23:30;99271.50;;;10.87;100.00
7888;BME280;3989;48.810;9.208;2022-10-31T01:26:02;99271.34;;;10.81;100.00
7888;BME280;3989;48.810;9.208;2022-10-31T01:28:29;99265.19;;;10.72;100.00
7888;BME280;3989;48.810;9.208;2022-10-31T01:30:55;99263.03;;;10.76;100.00
7888;BME280;3989;48.810;9.208;2022-10-31T01:33:27;99257.69;;;10.76;100.00
7888;BME280;3989;48.810;9.208;2022-10-31T01:35:53;99251.19;;;10.62;100.00
7888;BME280;3989;48.810;9.208;2022-10-31T01:38:20;99263.31;;;10.73;100.00
7888;BME280;3989;48.810;9.208;2022-10-31T01:40:47;99247.81;;;10.60;100.00
7888;BME280;3989;48.810;9.208;2022-10-31T01:43:14;99224.66;;;10.36;100.00
7888;BME280;3989;48.810;9.208;2022-10-31T01:45:42;99267.19;;;10.62;100.00
7888;BME280;3989;48.810;9.208;2022-10-31T01:48:11;99229.66;;;10.39;100.00
7888;BME280;3989;48.810;9.208;2022-10-31T01:50:43;99246.16;;;10.51;100.00
7888;BME280;3989;48.810;9.208;2022-10-31T01:53:11;99258.50;;;10.60;100.00
7888;BME280;3989;48.810;9.208;2022-10-31T01:55:40;99252.03;;;10.63;100.00
7888;BME280;3989;48.810;9.208;2022-10-31T01:58:11;99258.50;;;10.60;100.00
7888;BME280;3989;48.810;9.208;2022-10-31T02:00:41;99244.66;;;10.57;100.00
7888;BME280;3989;48.810;9.208;2022-10-31T02:03:10;99246.50;;;10.56;100.00
7888;BME280;3989;48.810;9.208;2022-10-31T02:05:37;99246.84;;;10.53;100.00
7888;BME280;3989;48.810;9.208;2022-10-31T02:08:08;99244.50;;;10.50;100.00
7888;BME280;3989;48.810;9.208;2022-10-31T02:10:40;99245.66;;;10.47;100.00
7888;BME280;3989;48.810;9.208;2022-10-31T02:13:08;99245.84;;;10.46;100.00
7888;BME280;3989;48.810;9.208;2022-10-31T02:15:36;99240.50;;;10.46;100.00
7888;BME280;3989;48.810;9.208;2022-10-31T02:18:04;99251.34;;;10.44;100.00
7888;BME280;3989;48.810;9.208;2022-10-31T02:20:33;99244.16;;;10.45;100.00
7888;BME280;3989;48.810;9.208;2022-10-31T02:23:31;99248.34;;;10.47;100.00
7888;BME280;3989;48.810;9.208;2022-10-31T02:32:07;99252.03;;;10.46;100.00
7888;BME280;3989;48.810;9.208;2022-10-31T02:34:42;99253.50;;;10.41;100.00
7888;BME280;3989;48.810;9.208;2022-10-31T02:37:13;99251.00;;;10.31;100.00
7888;BME280;3989;48.810;9.208;2022-10-31T02:39:47;99245.16;;;10.20;100.00
7888;BME280;3989;48.810;9.208;2022-10-31T02:42:19;99245.66;;;10.23;100.00
7888;BME280;3989;48.810;9.208;2022-10-31T02:44:53;99251.34;;;10.20;100.00
7888;BME280;3989;48.810;9.208;2022-10-31T02:47:27;99252.31;;;10.19;100.00
7888;BME280;3989;48.810;9.208;2022-10-31T02:49:57;99255.16;;;10.18;100.00
7888;BME280;3989;48.810;9.208;2022-10-31T02:52:28;99259.47;;;10.19;100.00
7888;BME280;3989;48.810;9.208;2022-10-31T02:54:55;99241.13;;;10.08;100.00
7888;BME280;3989;48.810;9.208;2022-10-31T02:57:25;99225.28;;;9.98;100.00
7888;BME280;3989;48.810;9.208;2022-10-31T02:59:55;99251.28;;;10.12;100.00
7888;BME280;3989;48.810;9.208;2022-10-31T03:02:35;99236.44;;;10.01;100.00
7888;BME280;3989;48.810;9.208;2022-10-31T03:05:32;99236.25;;;9.95;100.00
7888;BME280;3989;48.810;9.208;2022-10-31T03:08:07;99246.75;;;9.96;100.00
7888;BME280;3989;48.810;9.208;2022-10-31T03:10:39;99242.06;;;9.98;100.00
7888;BME280;3989;48.810;9.208;2022-10-31T03:13:12;99239.22;;;9.92;100.00
7888;BME280;3989;48.810;9.208;2022-10-31T03:15:43;99221.38;;;9.76;100.00
7888;BME280;3989;48.810;9.208;2022-10-31T03:18:15;99234.72;;;9.84;100.00
7888;BME280;3989;48.810;9.208;2022-10-31T03:20:46;99243.75;;;9.91;100.00
7888;BME280;3989;48.810;9.208;2022-10-31T03:23:16;99236.75;;;9.98;100.00
7888;BME280;3989;48.810;9.208;2022-10-31T03:25:45;99238.09;;;10.02;100.00
7888;BME280;3989;48.810;9.208;2022-10-31T03:28:15;99236.91;;;10.05;100.00
7888;BME280;3989;48.810;9.208;2022-10-31T03:30:44;99243.41;;;10.02;100.00
7888;BME280;3989;48.810;9.208;2022-10-31T03:33:15;99242.25;;;9.97;100.00
7888;BME280;3989;48.810;9.208;2022-10-31T03:35:45;99235.91;;;9.82;100.00
7888;BME280;3989;48.810;9.208;2022-10-31T03:38:14;99236.69;;;9.82;100.00
7888;BME280;3989;48.810;9.208;2022-10-31T03:40:43;99248.22;;;9.83;100.00
7888;BME280;3989;48.810;9.208;2022-10-31T03:43:15;99249.69;;;9.77;100.00
7888;BME280;3989;48.810;9.208;2022-10-31T03:45:45;99246.72;;;9.80;100.00
7888;BME280;3989;48.810;9.208;2022-10-31T03:48:15;99254.38;;;9.75;100.00
7888;BME280;3989;48.810;9.208;2022-10-31T03:50:47;99234.81;;;9.59;100.00
7888;BME280;3989;48.810;9.208;2022-10-31T03:53:22;99241.69;;;9.69;100.00
7888;BME280;3989;48.810;9.208;2022-10-31T03:55:52;99248.16;;;9.67;100.00
7888;BME280;3989;48.810;9.208;2022-10-31T03:58:26;99246.47;;;9.58;100.00
7888;BME280;3989;48.810;9.208;2022-10-31T04:00:57;99236.78;;;9.48;100.00
7888;BME280;3989;48.810;9.208;2022-10-31T04:03:28;99245.28;;;9.52;100.00
7888;BME280;3989;48.810;9.208;2022-10-31T04:06:00;99245.28;;;9.52;100.00
7888;BME280;3989;48.810;9.208;2022-10-31T04:08:31;99235.44;;;9.44;100.00
7888;BME280;3989;48.810;9.208;2022-10-31T04:10:59;99245.28;;;9.52;100.00
7888;BME280;3989;48.810;9.208;2022-10-31T04:13:29;99226.56;;;9.36;100.00
7888;BME280;3989;48.810;9.208;2022-10-31T04:15:57;99241.28;;;9.48;100.00
7888;BME280;3989;48.810;9.208;2022-10-31T04:18:26;99248.75;;;9.44;100.00
7888;BME280;3989;48.810;9.208;2022-10-31T04:20:59;99235.88;;;9.32;100.00
7888;BME280;3989;48.810;9.208;2022-10-31T04:23:26;99243.53;;;9.27;100.00
7888;BME280;3989;48.810;9.208;2022-10-31T04:25:53;99227.81;;;9.16;100.00
7888;BME280;3989;48.810;9.208;2022-10-31T04:28:20;99235.84;;;9.24;100.00
7888;BME280;3989;48.810;9.208;2022-10-31T04:30:46;99229.84;;;9.22;100.00
7888;BME280;3989;48.810;9.208;2022-10-31T04:33:13;99226.13;;;9.15;100.00
7888;BME280;3989;48.810;9.208;2022-10-31T04:35:41;99218.78;;;9.09;100.00
7888;BME280;3989;48.810;9.208;2022-10-31T04:38:08;99229.50;;;9.17;100.00
7888;BME280;3989;48.810;9.208;2022-10-31T04:40:34;99202.19;;;8.89;100.00
7888;BME280;3989;48.810;9.208;2022-10-31T04:43:01;99226.88;;;8.99;100.00
7888;BME280;3989;48.810;9.208;2022-10-31T04:45:27;99223.69;;;8.95;100.00
7888;BME280;3989;48.810;9.208;2022-10-31T04:47:54;99209.88;;;8.92;100.00
7888;BME280;3989;48.810;9.208;2022-10-31T04:50:20;99222.38;;;8.91;100.00
7888;BME280;3989;48.810;9.208;2022-10-31T04:52:48;99151.25;;;8.50;100.00
7888;BME280;3989;48.810;9.208;2022-10-31T04:55:15;99192.19;;;8.83;100.00
7888;BME280;3989;48.810;9.208;2022-10-31T04:57:42;99213.06;;;8.95;100.00
7888;BME280;3989;48.810;9.208;2022-10-31T05:00:10;99165.44;;;8.59;100.00
7888;BME280;3989;48.810;9.208;2022-10-31T05:02:43;99219.00;;;8.89;100.00
7888;BME280;3989;48.810;9.208;2022-10-31T05:05:09;99207.69;;;8.87;100.00
7888;BME280;3989;48.810;9.208;2022-10-31T05:07:38;99208.38;;;8.89;100.00
7888;BME280;3989;48.810;9.208;2022-10-31T05:10:08;99201.38;;;8.88;100.00
7888;BME280;3989;48.810;9.208;2022-10-31T05:12:35;99194.41;;;8.95;100.00
7888;BME280;3989;48.810;9.208;2022-10-31T05:15:03;99144.19;;;8.67;100.00
7888;BME280;3989;48.810;9.208;2022-10-31T05:17:30;99200.97;;;9.09;100.00
7888;BME280;3989;48.810;9.208;2022-10-31T05:19:57;99055.47;;;8.24;100.00
7888;BME280;3989;48.810;9.208;2022-10-31T05:22:23;99197.66;;;9.07;100.00
7888;BME280;3989;48.810;9.208;2022-10-31T05:24:50;99140.56;;;8.68;100.00
7888;BME280;3989;48.810;9.208;2022-10-31T05:27:18;99128.34;;;8.57;100.00
7888;BME280;3989;48.810;9.208;2022-10-31T05:29:44;99200.97;;;9.01;100.00
7888;BME280;3989;48.810;9.208;2022-10-31T05:32:11;98956.31;;;7.47;100.00
7888;BME280;3989;48.810;9.208;2022-10-31T05:34:37;99181.53;;;8.83;100.00
7888;BME280;3989;48.810;9.208;2022-10-31T05:37:04;99203.09;;;8.98;100.00
7888;BME280;3989;48.810;9.208;2022-10-31T05:39:30;99178.25;;;8.89;100.00
7888;BME280;3989;48.810;9.208;2022-10-31T05:41:57;99190.31;;;9.01;100.00
7888;BME280;3989;48.810;9.208;2022-10-31T05:44:24;99137.38;;;8.64;100.00
7888;BME280;3989;48.810;9.208;2022-10-31T05:46:51;99049.44;;;8.14;100.00
7888;BME280;3989;48.810;9.208;2022-10-31T05:49:18;99182.94;;;8.95;100.00
7888;BME280;3989;48.810;9.208;2022-10-31T05:51:44;99189.94;;;8.96;100.00
7888;BME280;3989;48.810;9.208;2022-10-31T05:54:11;99185.50;;;9.05;100.00
7888;BME280;3989;48.810;9.208;2022-10-31T05:56:37;99149.97;;;8.88;100.00
7888;BME280;3989;48.810;9.208;2022-10-31T05:59:04;99180.19;;;9.13;100.00
7888;BME280;3989;48.810;9.208;2022-10-31T06:01:32;99177.06;;;9.17;100.00
7888;BME280;3989;48.810;9.208;2022-10-31T06:03:58;99180.72;;;9.16;100.00
7888;BME280;3989;48.810;9.208;2022-10-31T06:06:24;99063.13;;;8.45;100.00
7888;BME280;3989;48.810;9.208;2022-10-31T06:08:51;99132.69;;;8.92;100.00
7888;BME280;3989;48.810;9.208;2022-10-31T06:11:17;99151.38;;;9.08;100.00
7888;BME280;3989;48.810;9.208;2022-10-31T06:13:44;99156.56;;;9.10;100.00
7888;BME280;3989;48.810;9.208;2022-10-31T06:16:10;99186.25;;;9.31;100.00
7888;BME280;3989;48.810;9.208;2022-10-31T06:18:38;99182.94;;;9.29;100.00
7888;BME280;3989;48.810;9.208;2022-10-31T06:21:05;99160.25;;;9.17;100.00
7888;BME280;3989;48.810;9.208;2022-10-31T06:23:31;99081.34;;;8.66;100.00
7888;BME280;3989;48.810;9.208;2022-10-31T06:25:58;99169.41;;;9.22;100.00
7888;BME280;3989;48.810;9.208;2022-10-31T06:28:24;99182.94;;;9.29;100.00
7888;BME280;3989;48.810;9.208;2022-10-31T06:30:51;99184.09;;;9.34;100.00
7888;BME280;3989;48.810;9.208;2022-10-31T06:33:17;99085.22;;;8.79;100.00
7888;BME280;3989;48.810;9.208;2022-10-31T06:35:46;99188.97;;;9.47;100.00
7888;BME280;3989;48.810;9.208;2022-10-31T06:38:13;99183.03;;;9.53;100.00
7888;BME280;3989;48.810;9.208;2022-10-31T06:40:39;99186.03;;;9.58;100.00
7888;BME280;3989;48.810;9.208;2022-10-31T06:43:06;99187.38;;;9.62;100.00
7888;BME280;3989;48.810;9.208;2022-10-31T06:45:32;99186.22;;;9.65;100.00
7888;BME280;3989;48.810;9.208;2022-10-31T06:47:59;99103.66;;;9.15;100.00
7888;BME280;3989;48.810;9.208;2022-10-31T06:50:26;99203.38;;;9.70;100.00
7888;BME280;3989;48.810;9.208;2022-10-31T06:52:55;99191.72;;;9.71;100.00
7888;BME280;3989;48.810;9.208;2022-10-31T06:55:23;99182.38;;;9.67;100.00
7888;BME280;3989;48.810;9.208;2022-10-31T06:57:50;99164.19;;;9.55;100.00
7888;BME280;3989;48.810;9.208;2022-10-31T07:00:17;99186.72;;;9.76;100.00
7888;BME280;3989;48.810;9.208;2022-10-31T07:02:44;99193.06;;;9.75;100.00
7888;BME280;3989;48.810;9.208;2022-10-31T07:05:18;99138.34;;;9.39;100.00
7888;BME280;3989;48.810;9.208;2022-10-31T07:07:44;99200.41;;;9.81;100.00
7888;BME280;3989;48.810;9.208;2022-10-31T07:10:15;99203.59;;;9.85;100.00
7888;BME280;3989;48.810;9.208;2022-10-31T07:12:41;99129.88;;;9.52;100.00
7888;BME280;3989;48.810;9.208;2022-10-31T07:15:08;99166.75;;;9.80;100.00
7888;BME280;3989;48.810;9.208;2022-10-31T07:17:35;99196.94;;;9.97;100.00
7888;BME280;3989;48.810;9.208;2022-10-31T07:20:02;99200.44;;;9.97;100.00
7888;BME280;3989;48.810;9.208;2022-10-31T07:22:32;99200.94;;;10.01;100.00
7888;BME280;3989;48.810;9.208;2022-10-31T07:24:59;99109.88;;;9.39;100.00
7888;BME280;3989;48.810;9.208;2022-10-31T07:27:27;99214.13;;;10.11;100.00
7888;BME280;3989;48.810;9.208;2022-10-31T07:29:54;99073.56;;;9.22;100.00
7888;BME280;3989;48.810;9.208;2022-10-31T07:32:20;99095.91;;;9.45;100.00
7888;BME280;3989;48.810;9.208;2022-10-31T07:34:47;99212.81;;;10.23;100.00
7888;BME280;3989;48.810;9.208;2022-10-31T07:37:13;99192.16;;;10.17;100.00
7888;BME280;3989;48.810;9.208;2022-10-31T07:39:43;99195.31;;;10.20;100.00
7888;BME280;3989;48.810;9.208;2022-10-31T07:42:09;99204.16;;;10.37;100.00
7888;BME280;3989;48.810;9.208;2022-10-31T07:44:37;99187.31;;;10.28;100.00
7888;BME280;3989;48.810;9.208;2022-10-31T07:47:04;99201.31;;;10.46;100.00
7888;BME280;3989;48.810;9.208;2022-10-31T07:49:30;99199.81;;;10.52;100.00
7888;BME280;3989;48.810;9.208;2022-10-31T07:51:57;99151.97;;;10.26;100.00
7888;BME280;3989;48.810;9.208;2022-10-31T07:54:23;99196.47;;;10.66;100.00
7888;BME280;3989;48.810;9.208;2022-10-31T07:56:50;99189.75;;;10.70;100.00
7888;BME280;3989;48.810;9.208;2022-10-31T07:59:16;99036.47;;;9.77;100.00
7888;BME280;3989;48.810;9.208;2022-10-31T08:01:44;99197.75;;;10.86;100.00
7888;BME280;3989;48.810;9.208;2022-10-31T08:04:10;99102.78;;;10.37;100.00
7888;BME280;3989;48.810;9.208;2022-10-31T08:06:37;99198.69;;;11.10;100.00
7888;BME280;3989;48.810;9.208;2022-10-31T08:09:03;99197.47;;;11.20;100.00
7888;BME280;3989;48.810;9.208;2022-10-31T08:11:30;99156.13;;;11.08;100.00
7888;BME280;3989;48.810;9.208;2022-10-31T08:13:56;99199.19;;;11.44;100.00
7888;BME280;3989;48.810;9.208;2022-10-31T08:16:23;99205.16;;;11.54;100.00
7888;BME280;3989;48.810;9.208;2022-10-31T08:18:51;99141.19;;;11.22;100.00
7888;BME280;3989;48.810;9.208;2022-10-31T08:21:18;99133.03;;;11.23;100.00
7888;BME280;3989;48.810;9.208;2022-10-31T08:23:45;99161.78;;;11.44;100.00
7888;BME280;3989;48.810;9.208;2022-10-31T08:26:11;99208.06;;;11.83;100.00
7888;BME280;3989;48.810;9.208;2022-10-31T08:28:38;99203.50;;;11.92;100.00
7888;BME280;3989;48.810;9.208;2022-10-31T08:31:04;99184.47;;;11.87;100.00
7888;BME280;3989;48.810;9.208;2022-10-31T08:33:31;99170.44;;;11.85;100.00
7888;BME280;3989;48.810;9.208;2022-10-31T08:35:59;99026.25;;;11.07;100.00
7888;BME280;3989;48.810;9.208;2022-10-31T08:38:25;99193.09;;;12.20;100.00
7888;BME280;3989;48.810;9.208;2022-10-31T08:40:52;99174.09;;;12.15;100.00
7888;BME280;3989;48.810;9.208;2022-10-31T08:43:18;99148.69;;;12.10;100.00
7888;BME280;3989;48.810;9.208;2022-10-31T08:45:48;99188.56;;;12.43;100.00
7888;BME280;3989;48.810;9.208;2022-10-31T08:48:16;99187.31;;;12.53;100.00
7888;BME280;3989;48.810;9.208;2022-10-31T08:50:44;98959.84;;;11.27;100.00
7888;BME280;3989;48.810;9.208;2022-10-31T08:53:14;99082.66;;;12.11;100.00
7888;BME280;3989;48.810;9.208;2022-10-31T08:55:42;99176.19;;;12.79;100.00
7888;BME280;3989;48.810;9.208;2022-10-31T08:58:11;99172.75;;;12.85;100.00
7888;BME280;3989;48.810;9.208;2022-10-31T09:00:38;99036.59;;;12.16;100.00
7888;BME280;3989;48.810;9.208;2022-10-31T09:03:06;99042.91;;;12.23;100.00
7888;BME280;3989;48.810;9.208;2022-10-31T09:05:35;99168.44;;;13.13;100.00
7888;BME280;3989;48.810;9.208;2022-10-31T09:08:04;99165.31;;;13.25;100.00
7888;BME280;3989;48.810;9.208;2022-10-31T09:10:34;99012.91;;;12.42;100.00
7888;BME280;3989;48.810;9.208;2022-10-31T09:13:05;98977.75;;;12.30;100.00
7888;BME280;3989;48.810;9.208;2022-10-31T09:15:33;99164.34;;;13.47;100.00
7888;BME280;3989;48.810;9.208;2022-10-31T09:17:59;99167.63;;;13.63;100.00
7888;BME280;3989;48.810;9.208;2022-10-31T09:20:27;99138.44;;;13.54;100.00
7888;BME280;3989;48.810;9.208;2022-10-31T09:22:57;99169.34;;;13.86;100.00
7888;BME280;3989;48.810;9.208;2022-10-31T09:25:24;99013.69;;;12.86;100.00
7888;BME280;3989;48.810;9.208;2022-10-31T09:27:55;99168.25;;;14.01;100.00
7888;BME280;3989;48.810;9.208;2022-10-31T09:30:22;99141.16;;;13.96;100.00
7888;BME280;3989;48.810;9.208;2022-10-31T09:32:54;99095.16;;;13.78;100.00
7888;BME280;3989;48.810;9.208;2022-10-31T09:35:21;99160.50;;;14.13;100.00
7888;BME280;3989;48.810;9.208;2022-10-31T09:37:53;99156.66;;;14.22;100.00
7888;BME280;3989;48.810;9.208;2022-10-31T09:40:20;99158.41;;;14.30;100.00
7888;BME280;3989;48.810;9.208;2022-10-31T09:42:55;99052.19;;;13.72;100.00
7888;BME280;3989;48.810;9.208;2022-10-31T09:45:27;99155.81;;;14.36;100.00
7888;BME280;3989;48.810;9.208;2022-10-31T09:48:21;99038.44;;;13.81;100.00
7888;BME280;3989;48.810;9.208;2022-10-31T09:50:53;99093.25;;;14.14;100.00
7888;BME280;3989;48.810;9.208;2022-10-31T09:53:27;99153.13;;;14.64;100.00
7888;BME280;3989;48.810;9.208;2022-10-31T09:55:55;99137.78;;;14.58;100.00
7888;BME280;3989;48.810;9.208;2022-10-31T09:58:26;99150.53;;;14.77;100.00
7888;BME280;3989;48.810;9.208;2022-10-31T10:00:56;99151.84;;;14.88;100.00
7888;BME280;3989;48.810;9.208;2022-10-31T10:03:31;99152.13;;;14.99;100.00
7888;BME280;3989;48.810;9.208;2022-10-31T10:06:06;99147.47;;;15.14;100.00
7888;BME280;3989;48.810;9.208;2022-10-31T10:08:38;99109.28;;;14.91;100.00
7888;BME280;3989;48.810;9.208;2022-10-31T10:11:19;99143.16;;;15.27;100.00
7888;BME280;3989;48.810;9.208;2022-10-31T10:14:00;99148.00;;;15.38;100.00
7888;BME280;3989;48.810;9.208;2022-10-31T10:16:53;99144.56;;;15.50;100.00
7888;BME280;3989;48.810;9.208;2022-10-31T10:19:33;99039.03;;;15.01;100.00
7888;BME280;3989;48.810;9.208;2022-10-31T10:22:10;99134.03;;;15.62;100.00
7888;BME280;3989;48.810;9.208;2022-10-31T10:24:55;99138.44;;;15.76;100.00
7888;BME280;3989;48.810;9.208;2022-10-31T10:27:34;98949.38;;;14.61;100.00
7888;BME280;3989;48.810;9.208;2022-10-31T10:30:13;99104.91;;;15.79;100.00
7888;BME280;3989;48.810;9.208;2022-10-31T10:32:44;99118.59;;;16.03;100.00
7888;BME280;3989;48.810;9.208;2022-10-31T10:35:20;99126.91;;;16.28;100.00
7888;BME280;3989;48.810;9.208;2022-10-31T10:37:50;99076.75;;;16.14;100.00
7888;BME280;3989;48.810;9.208;2022-10-31T10:40:21;99136.03;;;16.53;100.00
7888;BME280;3989;48.810;9.208;2022-10-31T10:42:56;99067.84;;;16.13;100.00
7888;BME280;3989;48.810;9.208;2022-10-31T10:45:49;99126.06;;;16.80;100.00
7888;BME280;3989;48.810;9.208;2022-10-31T10:48:41;99123.31;;;16.93;100.00
7888;BME280;3989;48.810;9.208;2022-10-31T10:51:21;98974.25;;;16.09;100.00
7888;BME280;3989;48.810;9.208;2022-10-31T10:54:07;99115.47;;;16.92;100.00
7888;BME280;3989;48.810;9.208;2022-10-31T10:56:53;99109.25;;;16.91;100.00
7888;BME280;3989;48.810;9.208;2022-10-31T10:59:23;99111.75;;;16.93;100.00
7888;BME280;3989;48.810;9.208;2022-10-31T11:01:52;98875.16;;;15.60;100.00
7888;BME280;3989;48.810;9.208;2022-10-31T11:04:30;99017.50;;;16.47;100.00
7888;BME280;3989;48.810;9.208;2022-10-31T11:07:02;99040.66;;;16.74;100.00
7888;BME280;3989;48.810;9.208;2022-10-31T11:09:29;99091.97;;;17.12;100.00
7888;BME280;3989;48.810;9.208;2022-10-31T11:11:56;99024.22;;;16.89;100.00
7888;BME280;3989;48.810;9.208;2022-10-31T11:14:24;99082.53;;;17.34;100.00
7888;BME280;3989;48.810;9.208;2022-10-31T11:16:55;99066.72;;;17.44;100.00
7888;BME280;3989;48.810;9.208;2022-10-31T11:19:24;99069.78;;;17.54;100.00
7888;BME280;3989;48.810;9.208;2022-10-31T11:21:51;99032.13;;;17.35;100.00
7888;BME280;3989;48.810;9.208;2022-10-31T11:24:19;99055.22;;;17.62;100.00
7888;BME280;3989;48.810;9.208;2022-10-31T11:26:47;99063.38;;;17.87;100.00
7888;BME280;3989;48.810;9.208;2022-10-31T11:29:17;99034.09;;;17.83;100.00
7888;BME280;3989;48.810;9.208;2022-10-31T11:31:47;98984.34;;;17.73;100.00
7888;BME280;3989;48.810;9.208;2022-10-31T11:34:24;99055.00;;;18.19;100.00
7888;BME280;3989;48.810;9.208;2022-10-31T11:36:53;99047.47;;;18.28;100.00
7888;BME280;3989;48.810;9.208;2022-10-31T11:39:22;99038.00;;;18.37;100.00
7888;BME280;3989;48.810;9.208;2022-10-31T11:41:50;99039.97;;;18.48;100.00
7888;BME280;3989;48.810;9.208;2022-10-31T11:44:19;99010.59;;;18.33;100.00
7888;BME280;3989;48.810;9.208;2022-10-31T11:46:48;99039.78;;;18.68;100.00
7888;BME280;3989;48.810;9.208;2022-10-31T11:49:20;99027.66;;;18.77;100.00
7888;BME280;3989;48.810;9.208;2022-10-31T11:51:50;99009.78;;;18.76;100.00
7888;BME280;3989;48.810;9.208;2022-10-31T11:54:21;99023.97;;;18.90;100.00
7888;BME280;3989;48.810;9.208;2022-10-31T11:56:49;99021.03;;;18.91;100.00
7888;BME280;3989;48.810;9.208;2022-10-31T11:59:22;99023.28;;;18.94;100.00
7888;BME280;3989;48.810;9.208;2022-10-31T12:01:51;99017.66;;;18.96;100.00
7888;BME280;3989;48.810;9.208;2022-10-31T12:04:24;99022.91;;;18.91;100.00
7888;BME280;3989;48.810;9.208;2022-10-31T12:06:54;98909.13;;;18.19;100.00
7888;BME280;3989;48.810;9.208;2022-10-31T12:09:22;98991.97;;;18.86;100.00
7888;BME280;3989;48.810;9.208;2022-10-31T12:12:09;98954.75;;;18.70;100.00
7888;BME280;3989;48.810;9.208;2022-10-31T12:14:43;99003.13;;;19.08;100.00
7888;BME280;3989;48.810;9.208;2022-10-31T12:17:14;98998.22;;;19.17;100.00
7888;BME280;3989;48.810;9.208;2022-10-31T12:19:54;98991.81;;;19.29;100.00
7888;BME280;3989;48.810;9.208;2022-10-31T12:22:30;98993.16;;;19.38;100.00
7888;BME280;3989;48.810;9.208;2022-10-31T12:25:15;98956.25;;;19.26;100.00
7888;BME280;3989;48.810;9.208;2022-10-31T12:30:43;98952.72;;;19.44;100.00
7888;BME280;3989;48.810;9.208;2022-10-31T12:33:24;98949.63;;;19.40;100.00
7888;BME280;3989;48.810;9.208;2022-10-31T12:36:07;98977.91;;;19.56;100.00
7888;BME280;3989;48.810;9.208;2022-10-31T12:38:48;98888.41;;;18.98;100.00
7888;BME280;3989;48.810;9.208;2022-10-31T12:41:27;98963.38;;;19.38;100.00
7888;BME280;3989;48.810;9.208;2022-10-31T12:44:15;98926.38;;;18.91;100.00
7888;BME280;3989;48.810;9.208;2022-10-31T12:47:04;98939.09;;;18.72;100.00
7888;BME280;3989;48.810;9.208;2022-10-31T12:49:44;98956.53;;;18.76;100.00
7888;BME280;3989;48.810;9.208;2022-10-31T12:52:27;98938.22;;;18.60;100.00
7888;BME280;3989;48.810;9.208;2022-10-31T12:55:08;98942.94;;;18.65;100.00
7888;BME280;3989;48.810;9.208;2022-10-31T12:57:42;98943.84;;;18.59;100.00
7888;BME280;3989;48.810;9.208;2022-10-31T13:00:13;98945.88;;;18.63;100.00
7888;BME280;3989;48.810;9.208;2022-10-31T13:02:51;98862.69;;;18.29;100.00
7888;BME280;3989;48.810;9.208;2022-10-31T13:05:27;98824.59;;;18.01;100.00
7888;BME280;3989;48.810;9.208;2022-10-31T13:07:58;98930.69;;;18.62;100.00
7888;BME280;3989;48.810;9.208;2022-10-31T13:10:31;98905.03;;;18.53;100.00
7888;BME280;3989;48.810;9.208;2022-10-31T13:13:04;98754.44;;;17.58;100.00
7888;BME280;3989;48.810;9.208;2022-10-31T13:15:41;98909.53;;;18.41;100.00
7888;BME280;3989;48.810;9.208;2022-10-31T13:18:14;98921.31;;;18.47;100.00
7888;BME280;3989;48.810;9.208;2022-10-31T13:20:46;98902.25;;;18.42;100.00
7888;BME280;3989;48.810;9.208;2022-10-31T13:23:19;98896.00;;;18.41;100.00
7888;BME280;3989;48.810;9.208;2022-10-31T13:26:20;98676.78;;;17.05;100.00
7888;BME280;3989;48.810;9.208;2022-10-31T13:29:14;98646.09;;;17.00;100.00
7888;BME280;3989;48.810;9.208;2022-10-31T13:31:46;98659.31;;;17.08;100.00
7888;BME280;3989;48.810;9.208;2022-10-31T13:34:21;98856.63;;;18.15;100.00
7888;BME280;3989;48.810;9.208;2022-10-31T13:37:01;98890.75;;;18.46;100.00
7888;BME280;3989;48.810;9.208;2022-10-31T13:40:01;98881.53;;;18.54;100.00